Hovedside
METAR-TAF:

METAR-TAF

Lufthavner :

Donegal, Irland

breddegrad: 55-02-39N, lengdegrad: 8-20-28W, høyde over havet: 9 m

Gjeldene værobservasjon

Denne rapporten ble laget for 18 minutter siden, klokken 14:31 UTC
Vind 6 kt fra Nord-nordvest
Temperatur 15°C
Luftfuktighet 67%
Trykk 1016 hPa
Sikt 10 km eller mer
ingen skyer under 1500 m og ingen bygeskyer

METAR: EIDL 181431Z 33006KT CAVOK 15/09 Q1016

Tid: 15:49 (14:49 UTC)

Varsel

Denne rapporten ble laget for 49 minutter siden, klokken 14:00 UTC
Varsel gyldig fra 18. klokken 15 UTC til 18. klokken 24 UTC
Vind 7 kt fra Nord-nordvest
Sikt 10 km eller mer
Få skyer i en høyde av 2500 ft

TAF: EIDL 181400Z 1815/1824 33007KT 9999 FEW025

Værobservasjoner og værvarsel for over 4000 flyplasser (METAR- og TAF-rapporter).

Tilgjengelige stasjoner er representert av de røde og gule prikkene på kartet.

Hold musepekeren over prikken for å se navnet på stasjonen.

Klikk så for å se værobservasjoner og -varsler.

For å forandre kartet kan du klikke på den grønne knappen med svart kryss for å zoome inn, på den grønne knappen med strek for å zoome ut, eller på de grønne pilene for å se tilstøtende kart.


METAR-TAF: